Friday, September 21, 2018, 5:38 PM EDT
Back to Local

KMSV, Monticello, Sullivan County International Airport

Location: Swan Lake, NY, United States Lat: 41.7
Local Time: 5:38 PM EDT (21:38 GMT) Lon: -74.8
Time Zone: US/Eastern Elev: 1404 ft

Show me the last for .
Show Coded

Time T Td Feel RH Dir Speed Gust Alt SLP Vis Weather Sky Remarks
2018-09-21 16:56 64 62 - 93 170° 9 - 30.07 30.06 10 OVC008 None
2018-09-21 16:28 64 63 - 93 180° 7 - 30.08 - 7 OVC008 None
2018-09-21 15:56 65 61 - 87 190° 9 - 30.10 30.09 10 OVC010 None
2018-09-21 14:56 64 61 - 89 180° 12 17 30.12 30.11 10 OVC010 None
2018-09-21 13:56 64 60 - 86 170° 8 - 30.15 30.14 10 OVC010 6-hr Precip Total (2pm): 0.00"
6-hr Min Temp (2pm): 61.0°F
6-hr Max Temp (2pm): 64.0°F
2018-09-21 13:43 64 61 - 88 160° 9 - 30.15 - 10 OVC010 None
2018-09-21 12:56 62 60 - 93 190° 6 - 30.17 30.16 10 OVC006 1-hr Precip Total: Trace
2018-09-21 12:21 63 61 - 93 170° 8 - 30.19 - 4 -RA BR OVC004 1-hr Precip Total: Trace
2018-09-21 11:56 62 60 - 93 190° 8 - 30.20 30.19 3 -RA BR OVC006 1-hr Precip Total: Trace
2018-09-21 11:36 61 61 - 100 190° 8 - 30.20 - 3 -RA BR OVC006 1-hr Precip Total: Trace
2018-09-21 11:26 61 61 - 100 190° 10 - 30.20 - 2 -RA BR OVC006 1-hr Precip Total: Trace
2018-09-21 10:56 62 59 - 89 180° 13 - 30.21 30.20 10 OVC006 None
2018-09-21 09:56 61 59 - 93 190° 7 - 30.22 30.22 8 OVC006 None
2018-09-21 08:56 61 59 - 93 180° 10 18 30.25 30.24 10 OVC008 None
2018-09-21 08:44 61 59 - 93 180° 10 16 30.25 - 10 OVC008 None
2018-09-21 07:56 61 58 - 89 180° 9 - 30.26 30.25 10 OVC010 6-hr Min Temp (8am): 60.1°F
6-hr Max Temp (8am): 61.0°F
2018-09-21 07:32 61 57 - 87 180° 6 - 30.26 - 10 BKN010 OVC017 None
2018-09-21 07:10 61 57 - 87 190° 9 - 30.26 - 10 OVC008 None
2018-09-21 06:56 61 58 - 89 190° 6 16 30.26 30.25 10 OVC010 None
2018-09-21 05:56 61 58 - 89 180° 8 - 30.25 30.24 10 OVC010 None
2018-09-21 04:56 60 57 - 89 190° 7 - 30.25 30.24 10 OVC012 None
2018-09-21 03:56 60 57 - 89 180° 6 - 30.25 30.24 10 OVC010 None
2018-09-21 02:56 60 57 - 89 170° 7 - 30.25 30.25 10 BKN010 OVC019 None
2018-09-21 01:56 60 57 - 89 160° 10 - 30.26 30.25 10 BKN012 OVC020 6-hr Min Temp (2am): 60.1°F
6-hr Max Temp (2am): 61.0°F
2018-09-21 01:06 61 57 - 87 160° 9 - 30.26 - 10 BKN012 OVC018 None
2018-09-21 00:56 61 57 - 86 160° 10 - 30.26 30.25 10 SCT012 OVC018 24-hr Min Temp (1am): 55.0°F
24-hr Max Temp (1am): 62.1°F
2018-09-21 00:14 61 57 - 87 140° 7 - 30.28 - 10 OVC016 None
2018-09-20 23:56 61 58 - 89 140° 10 - 30.27 30.26 10 OVC014 None
2018-09-20 23:44 61 59 - 93 130° 7 - 30.27 - 10 OVC014 None
2018-09-20 22:56 61 59 - 93 80° 3 - 30.28 30.27 10 OVC016 None
2018-09-20 21:56 61 60 - 96 120° 6 - 30.25 30.25 9 FEW007 OVC016 None
2018-09-20 21:51 61 61 - 100 100° 5 - 30.26 - 9 SCT007 OVC016 None
2018-09-20 20:56 61 59 - 93 110° 3 - 30.26 30.26 10 BKN007 OVC015 None
2018-09-20 19:56 61 59 - 93 110° 3 - 30.25 30.25 10 OVC007 6-hr Min Temp (8pm): 60.1°F
6-hr Max Temp (8pm): 62.1°F
2018-09-20 18:56 61 59 - 93 160° 6 - 30.25 30.24 6 BR OVC005 None
2018-09-20 18:08 61 59 - 93 160° 5 - 30.25 - 6 BR OVC005 None
2018-09-20 17:56 61 59 - 93 140° 6 - 30.26 30.25 10 OVC007 None

Support USWX by starting your Amazon purchase here.